Time;durP1;ratioP1;P1;durP2;ratioP2;P2;SDS_P1;SDS_P2;PMS_P1;PMS_P2;Temp;Humidity;BMP_temperature;BMP_pressure;BME280_temperature;BME280_humidity;BME280_pressure;Samples;Min_cycle;Max_cycle;Signal;HPM_P1;HPM_P2
2022/09/24 00:02:40;;;;;;;3.17;2.70;;;;;;;13.76;100.00;95894.72;10376544;28;97187;-60
2022/09/24 00:07:44;;;;;;;4.57;2.78;;;;;;;13.68;100.00;95884.28;10387725;28;96877;-61
2022/09/24 00:12:47;;;;;;;3.90;3.03;;;;;;;13.69;100.00;95878.84;10381925;27;98072;-60
2022/09/24 00:17:50;;;;;;;4.07;2.85;;;;;;;13.66;100.00;95883.66;10378661;28;97079;-60
2022/09/24 00:22:54;;;;;;;3.45;2.92;;;;;;;13.66;100.00;95889.69;10370730;28;96927;-61
2022/09/24 00:27:57;;;;;;;3.80;3.00;;;;;;;13.69;100.00;95878.84;10349372;28;96814;-60
2022/09/24 00:33:00;;;;;;;4.82;3.03;;;;;;;13.66;100.00;95873.94;10356294;28;96754;-62
2022/09/24 00:38:05;;;;;;;3.45;2.90;;;;;;;13.61;100.00;95877.09;10345704;28;96654;-61
2022/09/24 00:43:28;;;;;;;3.67;3.28;;;;;;;13.47;100.00;95884.94;10349063;28;98241;-60
2022/09/24 00:48:33;;;;;;;3.92;3.00;;;;;;;13.33;100.00;95896.97;10376862;28;96758;-61
2022/09/24 00:53:37;;;;;;;4.27;3.17;;;;;;;13.35;100.00;95889.75;10397275;28;97474;-59
2022/09/24 00:58:39;;;;;;;4.23;3.30;;;;;;;13.50;100.00;95874.06;10373794;27;97669;-60
2022/09/24 01:03:42;;;;;;;3.58;3.05;;;;;;;13.58;100.00;95874.81;10361597;28;96821;-61
2022/09/24 01:08:47;;;;;;;4.13;3.20;;;;;;;13.63;100.00;95874.28;10375137;28;96874;-61
2022/09/24 01:14:04;;;;;;;5.45;3.00;;;;;;;13.65;100.00;95874.13;10378037;28;97086;-62
2022/09/24 01:19:19;;;;;;;5.25;3.42;;;;;;;13.52;100.00;95874.72;10365825;28;96929;-60
2022/09/24 01:24:50;;;;;;;5.93;3.45;;;;;;;13.39;100.00;95868.25;10362999;28;97979;-61
2022/09/24 01:30:03;;;;;;;4.00;3.33;;;;;;;13.46;100.00;95867.53;10355359;28;96971;-61
2022/09/24 01:35:14;;;;;;;3.63;3.30;;;;;;;13.41;100.00;95860.19;10337790;28;97116;-60
2022/09/24 01:40:20;;;;;;;5.82;3.55;;;;;;;13.39;100.00;95859.53;10367434;28;96804;-60
2022/09/24 01:45:28;;;;;;;5.88;4.32;;;;;;;13.36;100.00;95860.72;10359147;28;96789;-61
2022/09/24 01:50:35;;;;;;;4.60;4.20;;;;;;;13.30;100.00;95877.13;10375482;28;98701;-62
2022/09/24 01:55:46;;;;;;;5.63;4.00;;;;;;;13.34;100.00;95860.09;10375263;28;97121;-61
2022/09/24 02:00:56;;;;;;;4.22;3.83;;;;;;;13.39;100.00;95864.78;10369505;28;96844;-63
2022/09/24 02:06:03;;;;;;;4.93;4.20;;;;;;;13.32;100.00;95856.00;10376589;28;99093;-60
2022/09/24 02:11:09;;;;;;;6.55;4.80;;;;;;;13.31;100.00;95849.94;10377230;28;97222;-60
2022/09/24 02:16:18;;;;;;;6.25;4.13;;;;;;;13.24;100.00;95864.75;10368695;28;97112;-66
2022/09/24 02:21:23;;;;;;;4.80;4.18;;;;;;;13.26;100.00;95840.97;10335864;28;96796;-60
2022/09/24 02:26:26;;;;;;;5.32;4.82;;;;;;;13.30;100.00;95832.53;10380150;28;96792;-61
2022/09/24 02:31:32;;;;;;;5.97;4.75;;;;;;;13.31;100.00;95825.47;10372591;28;98871;-62
2022/09/24 02:36:36;;;;;;;6.53;5.53;;;;;;;13.36;100.00;95824.00;10376066;28;97482;-61
2022/09/24 02:41:41;;;;;;;6.07;4.70;;;;;;;13.38;100.00;95829.06;10388598;27;97215;-61
2022/09/24 02:46:45;;;;;;;5.22;4.72;;;;;;;13.32;100.00;95808.75;10367832;28;98220;-62
2022/09/24 02:51:48;;;;;;;6.93;5.28;;;;;;;13.33;100.00;95815.66;10374559;28;98380;-61
2022/09/24 02:56:52;;;;;;;6.93;5.80;;;;;;;13.34;100.00;95817.28;10425155;28;96878;-60
2022/09/24 03:01:56;;;;;;;5.35;4.85;;;;;;;13.32;100.00;95814.00;10386640;27;96869;-62
2022/09/24 03:06:59;;;;;;;5.67;4.93;;;;;;;13.32;100.00;95821.88;10383352;28;96772;-60
2022/09/24 03:12:02;;;;;;;6.90;5.57;;;;;;;13.39;100.00;95817.56;10378690;28;96761;-61
2022/09/24 03:17:06;;;;;;;7.68;5.75;;;;;;;13.40;100.00;95817.38;10364922;28;98240;-61
2022/09/24 03:22:08;;;;;;;5.70;4.87;;;;;;;13.45;100.00;95809.00;10349838;28;96917;-60
2022/09/24 03:27:12;;;;;;;6.85;5.05;;;;;;;13.47;100.00;95811.44;10422696;28;96981;-61
2022/09/24 03:32:16;;;;;;;5.07;4.00;;;;;;;13.41;100.00;95807.69;10369664;28;97846;-61
2022/09/24 03:37:19;;;;;;;5.27;4.57;;;;;;;13.41;100.00;95808.53;10352577;28;96781;-60
2022/09/24 03:42:21;;;;;;;6.15;4.88;;;;;;;13.40;100.00;95804.28;10410313;28;96861;-61
2022/09/24 03:47:25;;;;;;;5.47;4.82;;;;;;;13.32;100.00;95798.28;10351408;28;96822;-61
2022/09/24 03:52:28;;;;;;;5.90;5.07;;;;;;;13.31;100.00;95797.47;10372857;28;96778;-60
2022/09/24 03:57:31;;;;;;;7.28;5.25;;;;;;;13.33;100.00;95802.53;10379432;28;97129;-60
2022/09/24 04:02:35;;;;;;;5.78;5.13;;;;;;;13.34;100.00;95793.66;10372735;28;99161;-61
2022/09/24 04:07:38;;;;;;;5.40;4.90;;;;;;;13.39;100.00;95789.53;10378429;28;97351;-61
2022/09/24 04:12:42;;;;;;;5.15;4.07;;;;;;;13.44;100.00;95791.63;10373686;28;97084;-60
2022/09/24 04:17:50;;;;;;;4.43;4.03;;;;;;;13.42;100.00;95786.53;10377185;28;96813;-62
2022/09/24 04:22:55;;;;;;;5.30;4.47;;;;;;;13.39;100.00;95783.47;10382363;28;96882;-62
2022/09/24 04:28:00;;;;;;;4.90;3.92;;;;;;;13.36;100.00;95779.38;10347102;28;97090;-61
2022/09/24 04:33:05;;;;;;;4.43;3.65;;;;;;;13.38;100.00;95789.72;10363143;28;97095;-61
2022/09/24 04:38:07;;;;;;;4.30;3.53;;;;;;;13.32;100.00;95777.28;10379152;28;96931;-61
2022/09/24 04:43:10;;;;;;;4.72;3.60;;;;;;;13.34;100.00;95776.13;10346330;28;97033;-61
2022/09/24 04:48:14;;;;;;;4.63;3.88;;;;;;;13.34;100.00;95775.28;10355484;28;96820;-60
2022/09/24 04:53:17;;;;;;;4.20;3.63;;;;;;;13.33;100.00;95776.31;10368937;28;97011;-61
2022/09/24 04:58:20;;;;;;;5.18;3.83;;;;;;;13.30;100.00;95784.53;10377759;28;96824;-60
2022/09/24 05:03:24;;;;;;;4.72;3.85;;;;;;;13.30;100.00;95784.53;10371909;28;97595;-62
2022/09/24 05:08:27;;;;;;;4.70;4.00;;;;;;;13.28;100.00;95778.63;10364486;28;96855;-62
2022/09/24 05:13:29;;;;;;;6.22;4.30;;;;;;;13.28;100.00;95776.03;10410687;28;96694;-60
2022/09/24 05:18:35;;;;;;;4.82;4.32;;;;;;;13.27;100.00;95777.00;10377164;28;97221;-61
2022/09/24 05:23:37;;;;;;;4.38;3.97;;;;;;;13.26;100.00;95778.81;10365513;28;96832;-60
2022/09/24 05:28:41;;;;;;;4.68;4.03;;;;;;;13.22;100.00;95785.38;10377606;28;96809;-60
2022/09/24 05:33:46;;;;;;;6.07;4.88;;;;;;;13.17;100.00;95785.94;10377085;28;96812;-61
2022/09/24 05:38:48;;;;;;;5.40;4.90;;;;;;;13.16;100.00;95794.78;10386088;28;96905;-60
2022/09/24 05:43:51;;;;;;;4.88;4.38;;;;;;;13.18;100.00;95798.03;10343388;28;97009;-61
2022/09/24 05:48:55;;;;;;;5.35;4.72;;;;;;;13.18;100.00;95795.41;10376842;28;97815;-61
2022/09/24 05:53:58;;;;;;;4.57;4.17;;;;;;;13.18;100.00;95797.22;10374578;28;97163;-60
2022/09/24 05:59:01;;;;;;;5.72;4.55;;;;;;;13.18;100.00;95805.09;10350448;28;97051;-60
2022/09/24 06:04:05;;;;;;;6.07;4.90;;;;;;;13.05;100.00;95805.69;10357835;28;97965;-61
2022/09/24 06:09:11;;;;;;;4.82;4.32;;;;;;;13.02;100.00;95808.66;10386212;28;99285;-61
2022/09/24 06:14:13;;;;;;;5.80;5.10;;;;;;;12.98;100.00;95817.84;10378965;28;97049;-60
2022/09/24 06:19:17;;;;;;;4.60;4.20;;;;;;;12.96;100.00;95809.31;10383477;28;97019;-61
2022/09/24 06:24:21;;;;;;;5.25;4.72;;;;;;;13.00;100.00;95815.88;10397495;28;97351;-60
2022/09/24 06:29:24;;;;;;;5.03;3.75;;;;;;;13.02;100.00;95813.88;10377774;28;97348;-61
2022/09/24 06:34:28;;;;;;;3.72;3.25;;;;;;;13.04;100.00;95817.16;10347531;28;96874;-61
2022/09/24 06:39:30;;;;;;;4.00;3.60;;;;;;;13.08;100.00;95815.81;10374414;28;97347;-61
2022/09/24 06:44:33;;;;;;;3.90;3.50;;;;;;;13.10;100.00;95810.38;10416552;28;96862;-60
2022/09/24 06:49:37;;;;;;;3.92;3.10;;;;;;;13.11;100.00;95807.59;10345444;28;97034;-60
2022/09/24 06:54:40;;;;;;;2.83;2.53;;;;;;;13.08;100.00;95804.50;10342134;28;97961;-60
2022/09/24 06:59:43;;;;;;;4.90;3.42;;;;;;;13.16;100.00;95815.75;10346801;28;96900;-60
2022/09/24 07:04:47;;;;;;;3.08;2.78;;;;;;;13.17;100.00;95801.66;10368737;28;96857;-61
2022/09/24 07:09:50;;;;;;;2.87;2.60;;;;;;;13.21;100.00;95813.44;10388765;28;97041;-61
2022/09/24 07:14:53;;;;;;;3.13;2.80;;;;;;;13.30;100.00;95816.00;10344205;28;97530;-60
2022/09/24 07:19:57;;;;;;;4.25;2.72;;;;;;;13.37;100.00;95819.56;10379822;28;96974;-61
2022/09/24 07:24:59;;;;;;;3.37;2.70;;;;;;;13.36;100.00;95825.78;10382322;28;97263;-60
2022/09/24 07:30:04;;;;;;;3.08;2.75;;;;;;;13.40;100.00;95827.06;10361192;28;97937;-60
2022/09/24 07:35:08;;;;;;;3.97;3.13;;;;;;;13.44;100.00;95823.91;10379987;28;97066;-61
2022/09/24 07:40:11;;;;;;;3.80;2.90;;;;;;;13.49;100.00;95826.00;10375144;28;97019;-61
2022/09/24 07:45:16;;;;;;;5.80;3.10;;;;;;;13.58;100.00;95830.19;10379739;28;96807;-60
2022/09/24 07:50:21;;;;;;;4.17;2.70;;;;;;;13.65;100.00;95829.50;10361264;28;96884;-61
2022/09/24 07:55:24;;;;;;;;;;;;;;;13.55;100.00;95825.31;10368000;28;97113;-61
2022/09/24 08:00:27;;;;;;;3.58;2.85;;;;;;;13.75;100.00;95820.38;10375403;28;96916;-60
2022/09/24 08:05:31;;;;;;;4.10;3.10;;;;;;;13.90;100.00;95828.31;10379538;28;96861;-60
2022/09/24 08:10:34;;;;;;;4.05;3.10;;;;;;;14.03;100.00;95832.13;10386085;28;96910;-61
2022/09/24 08:15:37;;;;;;;3.83;2.70;;;;;;;14.14;100.00;95836.91;10377232;28;96818;-61
2022/09/24 08:20:41;;;;;;;2.60;2.40;;;;;;;14.31;100.00;95835.78;10371735;28;97510;-60
2022/09/24 08:25:44;;;;;;;3.33;2.47;;;;;;;14.53;100.00;95838.50;10391415;27;96954;-61
2022/09/24 08:30:47;;;;;;;3.83;2.90;;;;;;;14.77;100.00;95828.72;10395957;27;96977;-60
2022/09/24 08:35:51;;;;;;;12.35;9.98;;;;;;;14.88;100.00;95825.59;10394947;27;96817;-60
2022/09/24 08:41:02;;;;;;;6.90;3.93;;;;;;;14.92;100.00;95821.59;10392119;28;96890;-61
2022/09/24 08:51:50;;;;;;;2.50;2.00;;;;;;;15.26;100.00;95828.03;10383315;28;98963;-61
2022/09/24 08:56:55;;;;;;;2.47;2.10;;;;;;;15.41;100.00;95835.84;10396754;27;96874;-61
2022/09/24 09:02:14;;;;;;;2.40;2.15;;;;;;;15.40;100.00;95832.41;10394888;28;97315;-60
2022/09/24 09:07:23;;;;;;;2.85;2.10;;;;;;;15.68;100.00;95831.69;10395268;28;98289;-60
2022/09/24 09:12:31;;;;;;;2.30;2.10;;;;;;;15.94;100.00;95823.19;10386479;28;97340;-61
2022/09/24 09:17:44;;;;;;;3.45;1.95;;;;;;;16.02;100.00;95822.25;10395733;27;97255;-62
2022/09/24 09:22:52;;;;;;;2.70;2.10;;;;;;;16.27;100.00;95837.59;10397656;28;96799;-60
2022/09/24 09:28:00;;;;;;;2.75;2.10;;;;;;;16.37;100.00;95830.16;10381268;28;97875;-61
2022/09/24 09:33:16;;;;;;;4.63;2.13;;;;;;;16.60;100.00;95824.59;10392948;27;97498;-61
2022/09/24 09:38:29;;;;;;;2.13;1.92;;;;;;;16.84;100.00;95831.22;10394908;28;96939;-61
2022/09/24 09:43:32;;;;;;;1.83;1.60;;;;;;;17.11;100.00;95816.31;10391142;28;97105;-62
2022/09/24 09:48:44;;;;;;;2.47;2.13;;;;;;;17.23;100.00;95811.28;10394280;28;96864;-61
2022/09/24 09:53:58;;;;;;;3.90;1.75;;;;;;;17.25;100.00;95805.78;10388953;28;96985;-61
2022/09/24 09:59:05;;;;;;;2.33;1.63;;;;;;;17.24;100.00;95807.59;10374631;28;98272;-60
2022/09/24 10:04:27;;;;;;;3.15;1.45;;;;;;;17.29;100.00;95807.00;10385531;27;97372;-60
2022/09/24 10:09:31;;;;;;;1.60;1.50;;;;;;;17.53;100.00;95803.00;10386340;28;97148;-60
2022/09/24 10:14:35;;;;;;;1.92;1.77;;;;;;;17.82;100.00;95795.66;10376436;27;97067;-61
2022/09/24 10:19:40;;;;;;;1.88;1.60;;;;;;;17.71;100.00;95800.53;10375389;28;97552;-62
2022/09/24 10:24:44;;;;;;;2.75;1.33;;;;;;;17.78;100.00;95789.16;10369893;28;97431;-60
2022/09/24 10:35:21;;;;;;;1.65;1.35;;;;;;;17.87;100.00;95782.69;10366079;28;97651;-61
2022/09/24 10:40:29;;;;;;;1.58;1.13;;;;;;;17.78;100.00;95778.59;10368666;28;96897;-61
2022/09/24 10:46:03;;;;;;;1.63;1.20;;;;;;;17.69;100.00;95776.16;10370369;28;96858;-60
2022/09/24 10:51:19;;;;;;;1.65;1.38;;;;;;;17.53;100.00;95773.94;10371855;28;97954;-63
2022/09/24 10:56:34;;;;;;;1.90;1.10;;;;;;;17.38;100.00;95760.91;10377993;28;97071;-62
2022/09/24 11:01:46;;;;;;;1.92;1.35;;;;;;;17.62;100.00;95761.34;10371905;28;97004;-62
2022/09/24 11:07:17;;;;;;;2.40;1.33;;;;;;;17.89;100.00;95773.56;10372779;28;96897;-60
2022/09/24 11:12:32;;;;;;;2.33;1.20;;;;;;;18.08;100.00;95763.13;10372479;28;98856;-61
2022/09/24 11:17:38;;;;;;;1.30;1.10;;;;;;;18.05;100.00;95753.81;10369712;28;98464;-65
2022/09/24 11:22:54;;;;;;;3.30;1.40;;;;;;;17.99;100.00;95754.63;10362668;28;97094;-60
2022/09/24 11:28:10;;;;;;;1.70;1.02;;;;;;;18.04;100.00;95756.66;10381614;28;96793;-61
2022/09/24 11:33:27;;;;;;;1.38;1.20;;;;;;;17.83;100.00;95744.47;10380462;28;96823;-61
2022/09/24 11:38:45;;;;;;;1.98;1.13;;;;;;;17.61;100.00;95747.31;10370439;28;96770;-62
2022/09/24 11:44:15;;;;;;;2.08;1.25;;;;;;;17.62;100.00;95748.94;10379886;28;97746;-61
2022/09/24 11:49:39;;;;;;;1.08;0.98;;;;;;;17.66;100.00;95738.78;10375930;28;98606;-61
2022/09/24 11:54:48;;;;;;;2.80;1.30;;;;;;;17.97;100.00;95730.22;10376306;28;96910;-60
2022/09/24 11:59:59;;;;;;;1.98;1.20;;;;;;;18.21;100.00;95730.59;10372095;28;96888;-62
2022/09/24 12:05:08;;;;;;;3.17;1.40;;;;;;;18.51;100.00;95725.59;10379500;28;97334;-61
2022/09/24 12:10:24;;;;;;;3.97;1.40;;;;;;;18.62;100.00;95711.72;10377778;28;96718;-61
2022/09/24 12:15:33;;;;;;;1.98;1.30;;;;;;;18.61;100.00;95706.63;10378574;28;97277;-61
2022/09/24 12:20:44;;;;;;;1.85;1.33;;;;;;;18.58;100.00;95699.13;10369378;28;97745;-61
2022/09/24 12:25:50;;;;;;;2.05;1.27;;;;;;;18.47;100.00;95709.34;10372957;28;96774;-63
2022/09/24 12:36:27;;;;;;;2.33;1.27;;;;;;;17.94;100.00;95705.03;10376606;28;96992;-61
2022/09/24 12:41:32;;;;;;;2.22;1.25;;;;;;;18.04;100.00;95686.09;10389795;28;97582;-61
2022/09/24 12:46:41;;;;;;;1.70;1.30;;;;;;;18.24;100.00;95690.53;10372540;28;97139;-61
2022/09/24 12:51:44;;;;;;;2.17;1.48;;;;;;;18.24;100.00;95691.31;10366847;28;97314;-62
2022/09/24 12:56:47;;;;;;;2.45;1.42;;;;;;;18.04;100.00;95687.94;10369578;27;96901;-62
2022/09/24 13:01:51;;;;;;;1.40;1.20;;;;;;;18.16;100.00;95674.88;10342369;28;98027;-61
2022/09/24 13:06:55;;;;;;;1.67;1.15;;;;;;;18.45;100.00;95679.66;10369781;28;96782;-61
2022/09/24 13:12:03;;;;;;;1.50;1.40;;;;;;;18.69;100.00;95669.34;10378744;28;96966;-62
2022/09/24 13:17:07;;;;;;;2.03;1.42;;;;;;;19.10;100.00;95664.63;10386126;28;97244;-62
2022/09/24 13:22:21;;;;;;;1.60;1.10;;;;;;;19.32;100.00;95655.28;10369356;28;98517;-61
2022/09/24 13:27:36;;;;;;;1.55;1.38;;;;;;;19.48;100.00;95661.88;10356990;28;97715;-61
2022/09/24 13:32:46;;;;;;;1.70;1.38;;;;;;;19.92;100.00;95665.34;10368146;28;97802;-60
2022/09/24 13:37:54;;;;;;;1.20;1.10;;;;;;;20.51;100.00;95662.19;10362575;28;97188;-66
2022/09/24 13:43:04;;;;;;;1.90;1.38;;;;;;;20.97;100.00;95658.13;10373486;28;98181;-65
2022/09/24 13:48:18;;;;;;;1.85;1.00;;;;;;;21.10;100.00;95641.16;10373064;28;98288;-65
2022/09/24 13:53:28;;;;;;;1.48;1.25;;;;;;;20.83;100.00;95632.81;10362937;28;97188;-64
2022/09/24 13:58:32;;;;;;;1.75;1.33;;;;;;;20.72;100.00;95637.81;10374656;28;97049;-65
2022/09/24 14:03:38;;;;;;;2.90;1.30;;;;;;;20.75;100.00;95639.22;10392386;28;97087;-65
2022/09/24 14:08:43;;;;;;;2.20;1.30;;;;;;;20.75;100.00;95633.94;10392970;28;98154;-65
2022/09/24 14:13:46;;;;;;;2.25;1.13;;;;;;;20.66;100.00;95624.66;10388883;28;97169;-64
2022/09/24 14:19:01;;;;;;;1.20;0.93;;;;;;;20.58;100.00;95617.78;10406208;27;97042;-65
2022/09/24 14:24:08;;;;;;;1.88;1.40;;;;;;;20.84;100.00;95615.81;10388084;28;98200;-64
2022/09/24 14:29:15;;;;;;;1.08;0.95;;;;;;;20.80;100.00;95625.28;10391368;27;97030;-65
2022/09/24 14:34:28;;;;;;;1.38;1.15;;;;;;;20.82;100.00;95617.91;10381977;27;97744;-67
2022/09/24 14:39:30;;;;;;;2.05;1.30;;;;;;;20.41;100.00;95611.50;10380846;28;96863;-64
2022/09/24 14:44:33;;;;;;;1.45;1.27;;;;;;;20.22;100.00;95613.38;10374700;28;96941;-66
2022/09/24 14:49:45;;;;;;;1.88;1.10;;;;;;;19.92;100.00;95617.63;10385912;28;96893;-65
2022/09/24 14:54:48;;;;;;;2.58;1.30;;;;;;;20.07;100.00;95611.13;10375550;28;97227;-66
2022/09/24 14:59:51;;;;;;;2.30;1.60;;;;;;;20.36;100.00;95599.75;10381406;28;98441;-62
2022/09/24 15:04:59;;;;;;;3.08;1.20;;;;;;;20.47;100.00;95600.00;10377033;28;98536;-63
2022/09/24 15:10:20;;;;;;;2.60;1.30;;;;;;;20.36;100.00;95591.78;10399617;28;96914;-63
2022/09/24 15:15:29;;;;;;;1.73;1.40;;;;;;;20.40;100.00;95580.72;10400638;28;97189;-66
2022/09/24 15:20:33;;;;;;;3.20;1.40;;;;;;;20.36;100.00;95583.81;10391972;28;97070;-64
2022/09/24 15:25:36;;;;;;;1.92;1.38;;;;;;;20.35;100.00;95587.50;10398005;27;97346;-64
2022/09/24 15:30:40;;;;;;;1.95;1.60;;;;;;;20.08;100.00;95588.88;10392575;28;97429;-65
2022/09/24 15:35:45;;;;;;;1.57;1.10;;;;;;;20.10;100.00;95584.97;10395042;28;96906;-64
2022/09/24 15:40:50;;;;;;;3.90;1.65;;;;;;;20.12;100.00;95576.81;10397852;27;97131;-65
2022/09/24 15:45:53;;;;;;;2.70;1.40;;;;;;;20.14;100.00;95580.03;10399958;27;97161;-64
2022/09/24 15:50:57;;;;;;;4.15;1.55;;;;;;;19.98;100.00;95582.28;10400701;28;96814;-64
2022/09/24 15:56:01;;;;;;;;;;;;;;;19.71;100.00;95588.88;10387833;28;97877;-64
2022/09/24 16:01:04;;;;;;;3.22;1.30;;;;;;;19.67;100.00;95579.75;10396997;28;97927;-63
2022/09/24 16:06:11;;;;;;;1.73;1.40;;;;;;;19.59;100.00;95571.09;10382750;28;97289;-64
2022/09/24 16:11:15;;;;;;;1.80;1.40;;;;;;;19.53;100.00;95574.59;10369010;28;96806;-64
2022/09/24 16:16:18;;;;;;;2.08;1.10;;;;;;;19.81;100.00;95581.22;10385094;28;98655;-65
2022/09/24 16:21:22;;;;;;;2.10;1.38;;;;;;;20.72;100.00;95574.13;10387818;28;97354;-63
2022/09/24 16:26:25;;;;;;;1.70;1.30;;;;;;;20.73;100.00;95566.97;10380786;28;97382;-64
2022/09/24 16:31:27;;;;;;;1.05;0.98;;;;;;;20.23;100.00;95557.47;10378458;27;97298;-64
2022/09/24 16:36:31;;;;;;;1.40;1.25;;;;;;;19.67;100.00;95571.81;10392789;28;97324;-64
2022/09/24 16:41:36;;;;;;;1.58;1.30;;;;;;;19.16;100.00;95571.13;10370030;28;97260;-63
2022/09/24 16:46:39;;;;;;;1.80;1.20;;;;;;;18.70;100.00;95575.72;10369138;28;97291;-64
2022/09/24 19:20:06;;;;;;;14.40;7.68;;;;;;;;;;10368541;28;100275;-66
2022/09/24 19:25:09;;;;;;;13.32;7.30;;;;;;;;;;10338891;28;100368;-63
2022/09/24 19:30:13;;;;;;;14.63;10.00;;;;;;;;;;10335552;28;100020;-69
2022/09/24 19:35:17;;;;;;;9.02;6.47;;;;;;;;;;10336739;28;99933;-64
2022/09/24 19:40:19;;;;;;;;;;;;;;;;;;10348475;28;100130;-66
2022/09/24 19:45:22;;;;;;;7.75;5.00;;;;;;;;;;10324716;28;115167;-69
2022/09/24 19:52:11;;;;;;;5.40;4.90;;;;;;;;;;10565159;27;100970;-78
2022/09/24 19:57:13;;;;;;;;;;;;;;;;;;10544475;27;100365;-76
2022/09/24 20:02:16;;;;;;;6.45;3.75;;;;;;;;;;10536177;27;115935;-76
2022/09/24 20:07:20;;;;;;;5.40;3.50;;;;;;;;;;10528271;27;101699;-74
2022/09/24 20:12:23;;;;;;;5.33;3.17;;;;;;;;;;10511337;27;100202;-77
2022/09/24 20:17:25;;;;;;;4.60;3.55;;;;;;;;;;10525221;27;100096;-76
2022/09/24 20:22:32;;;;;;;8.95;4.85;;;;;;;;;;10535976;27;100670;-76
2022/09/24 20:27:54;;;;;;;6.15;5.47;;;;;;;;;;10553201;27;100057;-76
2022/09/24 20:32:56;;;;;;;7.95;5.20;;;;;;;;;;10519023;27;100061;-71
2022/09/24 20:38:01;;;;;;;7.93;5.30;;;;;;;;;;10534931;27;100437;-72
2022/09/24 20:43:03;;;;;;;6.00;4.87;;;;;;;;;;10532902;27;100618;-71
2022/09/24 20:48:06;;;;;;;6.10;4.78;;;;;;;;;;10530884;27;100086;-76
2022/09/24 20:53:10;;;;;;;8.38;5.38;;;;;;;;;;10527341;27;102200;-75
2022/09/24 20:58:13;;;;;;;22.67;14.80;;;;;;;;;;10515218;27;100157;-72
2022/09/24 21:03:16;;;;;;;20.23;15.70;;;;;;;;;;10483987;27;100203;-71
2022/09/24 21:08:42;;;;;;;6.97;5.32;;;;;;;;;;10491451;27;101319;-73
2022/09/24 21:13:47;;;;;;;5.95;5.03;;;;;;;;;;10504488;27;100047;-73
2022/09/24 21:18:53;;;;;;;11.15;6.00;;;;;;;;;;10502341;27;100251;-73
2022/09/24 21:23:59;;;;;;;7.25;6.18;;;;;;;;;;10495138;27;101304;-73
2022/09/24 21:29:04;;;;;;;6.93;5.97;;;;;;;;;;10485721;27;100489;-73
2022/09/24 21:34:07;;;;;;;8.70;6.15;;;;;;;;;;10502364;27;100348;-73
2022/09/24 21:39:14;;;;;;;7.55;5.85;;;;;;;;;;10499609;27;100253;-73
2022/09/24 21:44:17;;;;;;;10.60;6.28;;;;;;;;;;10500670;27;101144;-72
2022/09/24 21:49:21;;;;;;;6.70;5.45;;;;;;;;;;10500824;27;100072;-73
2022/09/24 21:54:25;;;;;;;9.02;6.47;;;;;;;;;;10501496;27;100929;-73
2022/09/24 22:04:48;;;;;;;6.78;5.43;;;;;;;;;;10503607;27;100034;-72
2022/09/24 22:09:52;;;;;;;7.53;5.55;;;;;;;;;;10503916;27;99868;-73
2022/09/24 22:14:55;;;;;;;5.77;5.17;;;;;;;;;;10502894;27;100227;-73
2022/09/24 22:19:57;;;;;;;9.23;6.53;;;;;;;;;;10503163;27;100045;-72
2022/09/24 22:25:01;;;;;;;7.32;5.57;;;;;;;;;;10512587;27;100052;-72
2022/09/24 22:30:05;;;;;;;7.82;5.95;;;;;;;;;;10497706;27;100303;-73
2022/09/24 22:40:30;;;;;;;8.07;5.93;;;;;;;;;;10494259;27;100740;-73
2022/09/24 22:45:33;;;;;;;7.97;6.27;;;;;;;;;;10497755;27;101639;-73
2022/09/24 22:50:36;;;;;;;7.68;5.88;;;;;;;;;;10497571;27;100664;-73
2022/09/24 22:55:40;;;;;;;5.88;4.82;;;;;;;;;;10502624;27;100087;-73
2022/09/24 23:00:43;;;;;;;5.93;4.10;;;;;;;;;;10499046;27;100823;-73
2022/09/24 23:05:46;;;;;;;3.78;2.85;;;;;;;;;;10502900;27;100058;-74
2022/09/24 23:10:50;;;;;;;3.90;3.15;;;;;;;;;;10503360;27;99888;-72
2022/09/24 23:15:53;;;;;;;5.05;2.97;;;;;;;;;;10502185;27;100075;-73
2022/09/24 23:20:56;;;;;;;3.72;2.67;;;;;;;;;;10502546;27;100113;-73
2022/09/24 23:26:05;;;;;;;2.85;2.38;;;;;;;;;;10506693;27;99998;-73
2022/09/24 23:31:11;;;;;;;2.95;2.28;;;;;;;;;;10536100;27;99828;-72
2022/09/24 23:36:14;;;;;;;3.33;2.00;;;;;;;;;;10478341;27;100462;-72
2022/09/24 23:41:18;;;;;;;2.65;1.85;;;;;;;;;;10477596;27;100223;-71
2022/09/24 23:46:21;;;;;;;2.30;1.58;;;;;;;;;;10481874;27;100269;-73
2022/09/24 23:51:24;;;;;;;3.13;1.80;;;;;;;;;;10498574;27;100159;-73
2022/09/24 23:56:28;;;;;;;3.55;2.08;;;;;;;;;;10495984;27;101708;-73
